Rogersville, Canada
Current Conditions -  °F | °C
As of 2:00 PM on Thursday 23 Oct 2014 (Local Time) from CYQM Reporting Station
Overcast Overcast  
Wind Chill: 54°   Ceiling: 1500
Heat Index: 54°   Visibility: 15mi
Dew Point: 46°   Wind: 21mph
Humidity: 77%   Direction: 40°NE
Pressure: 30.06"   Gusts: NA
Location:  46.72°N, 65.42°W
Report Text: CYQM 231700Z 04018KT 15SM BKN015 OVC045 12/08 A3006 RMK CF7SC1 SLP181
Loading
Personal Weather Stations






























Interactive Weather Map
Tropical Storm Tracking
New forecast layout! Learn more

10-Day Weather Forecast

Advertisements
Track Severe Weather on mobile